sensor_id;sensor_type;location;lat;lon;timestamp;pressure;altitude;pressure_sealevel;temperature;humidity
61361;BME280;47232;47.506;18.936;2023-07-13T00:02:22;98131.47;;;24.52;59.90
61361;BME280;47232;47.506;18.936;2023-07-13T00:04:48;98133.33;;;24.47;59.57
61361;BME280;47232;47.506;18.936;2023-07-13T00:07:16;98126.78;;;24.40;59.03
61361;BME280;47232;47.506;18.936;2023-07-13T00:09:46;98116.34;;;24.35;58.39
61361;BME280;47232;47.506;18.936;2023-07-13T00:12:27;98099.02;;;24.30;57.74
61361;BME280;47232;47.506;18.936;2023-07-13T00:15:23;98095.54;;;24.24;57.66
61361;BME280;47232;47.506;18.936;2023-07-13T00:18:10;98083.02;;;24.19;58.03
61361;BME280;47232;47.506;18.936;2023-07-13T00:20:56;98068.83;;;24.14;57.89
61361;BME280;47232;47.506;18.936;2023-07-13T00:23:40;98058.98;;;24.09;57.57
61361;BME280;47232;47.506;18.936;2023-07-13T00:26:15;98050.70;;;24.02;57.22
61361;BME280;47232;47.506;18.936;2023-07-13T00:29:19;98045.52;;;23.94;56.97
61361;BME280;47232;47.506;18.936;2023-07-13T00:32:05;98029.67;;;23.90;56.97
61361;BME280;47232;47.506;18.936;2023-07-13T00:34:48;98020.97;;;23.88;56.93
61361;BME280;47232;47.506;18.936;2023-07-13T00:37:20;98008.83;;;23.85;56.67
61361;BME280;47232;47.506;18.936;2023-07-13T00:40:09;98011.52;;;23.82;55.93
61361;BME280;47232;47.506;18.936;2023-07-13T00:42:58;98009.95;;;23.81;55.34
61361;BME280;47232;47.506;18.936;2023-07-13T00:48:03;98010.30;;;23.85;54.64
61361;BME280;47232;47.506;18.936;2023-07-13T00:50:31;98007.85;;;23.87;54.02
61361;BME280;47232;47.506;18.936;2023-07-13T00:52:59;97995.27;;;23.90;53.68
61361;BME280;47232;47.506;18.936;2023-07-13T00:55:26;97990.30;;;23.91;53.27
61361;BME280;47232;47.506;18.936;2023-07-13T00:57:56;97983.92;;;23.92;52.52
61361;BME280;47232;47.506;18.936;2023-07-13T01:04:05;97984.29;;;23.95;52.73
61361;BME280;47232;47.506;18.936;2023-07-13T01:07:43;97981.08;;;23.95;53.71
61361;BME280;47232;47.506;18.936;2023-07-13T01:10:33;97994.34;;;23.87;53.71
61361;BME280;47232;47.506;18.936;2023-07-13T01:13:04;97993.81;;;23.85;53.63
61361;BME280;47232;47.506;18.936;2023-07-13T01:15:44;97991.45;;;23.84;53.85
61361;BME280;47232;47.506;18.936;2023-07-13T01:18:13;98005.59;;;23.84;54.23
61361;BME280;47232;47.506;18.936;2023-07-13T01:20:39;98016.80;;;23.81;54.35
61361;BME280;47232;47.506;18.936;2023-07-13T01:23:09;98012.60;;;23.75;54.34
61361;BME280;47232;47.506;18.936;2023-07-13T01:25:36;98001.01;;;23.71;54.48
61361;BME280;47232;47.506;18.936;2023-07-13T01:28:03;97992.23;;;23.68;54.19
61361;BME280;47232;47.506;18.936;2023-07-13T01:30:29;97992.41;;;23.63;54.12
61361;BME280;47232;47.506;18.936;2023-07-13T01:32:58;97994.72;;;23.58;54.00
61361;BME280;47232;47.506;18.936;2023-07-13T01:35:24;97990.06;;;23.52;54.14
61361;BME280;47232;47.506;18.936;2023-07-13T01:37:52;97982.90;;;23.44;54.15
61361;BME280;47232;47.506;18.936;2023-07-13T01:40:17;97976.58;;;23.38;54.32
61361;BME280;47232;47.506;18.936;2023-07-13T01:42:43;97971.52;;;23.32;54.45
61361;BME280;47232;47.506;18.936;2023-07-13T01:45:10;97966.92;;;23.27;54.62
61361;BME280;47232;47.506;18.936;2023-07-13T01:47:35;97964.85;;;23.22;54.66
61361;BME280;47232;47.506;18.936;2023-07-13T01:50:04;97964.43;;;23.15;54.38
61361;BME280;47232;47.506;18.936;2023-07-13T01:52:30;97966.27;;;23.08;54.61
61361;BME280;47232;47.506;18.936;2023-07-13T01:54:55;97967.88;;;23.03;55.01
61361;BME280;47232;47.506;18.936;2023-07-13T01:57:24;97972.23;;;22.97;54.95
61361;BME280;47232;47.506;18.936;2023-07-13T01:59:49;97959.39;;;22.91;55.24
61361;BME280;47232;47.506;18.936;2023-07-13T02:02:14;97957.05;;;22.87;55.43
61361;BME280;47232;47.506;18.936;2023-07-13T02:04:43;97947.80;;;22.85;55.61
61361;BME280;47232;47.506;18.936;2023-07-13T02:07:09;97943.97;;;22.83;55.42
61361;BME280;47232;47.506;18.936;2023-07-13T02:09:34;97948.52;;;22.80;54.91
61361;BME280;47232;47.506;18.936;2023-07-13T02:12:03;97952.48;;;22.77;54.70
61361;BME280;47232;47.506;18.936;2023-07-13T02:14:29;97956.25;;;22.74;54.36
61361;BME280;47232;47.506;18.936;2023-07-13T02:16:54;97959.34;;;22.70;54.33
61361;BME280;47232;47.506;18.936;2023-07-13T02:19:20;97951.04;;;22.66;54.55
61361;BME280;47232;47.506;18.936;2023-07-13T02:21:46;97949.73;;;22.63;54.47
61361;BME280;47232;47.506;18.936;2023-07-13T02:24:11;97953.49;;;22.60;54.36
61361;BME280;47232;47.506;18.936;2023-07-13T02:26:43;97955.88;;;22.56;54.03
61361;BME280;47232;47.506;18.936;2023-07-13T02:29:09;97950.64;;;22.51;53.66
61361;BME280;47232;47.506;18.936;2023-07-13T02:31:34;97951.75;;;22.48;53.49
61361;BME280;47232;47.506;18.936;2023-07-13T02:34:04;97964.45;;;22.45;53.20
61361;BME280;47232;47.506;18.936;2023-07-13T02:36:31;97974.60;;;22.39;53.00
61361;BME280;47232;47.506;18.936;2023-07-13T02:39:02;97970.70;;;22.34;53.30
61361;BME280;47232;47.506;18.936;2023-07-13T02:41:28;97964.59;;;22.31;53.62
61361;BME280;47232;47.506;18.936;2023-07-13T02:43:53;97955.58;;;22.28;53.68
61361;BME280;47232;47.506;18.936;2023-07-13T02:46:19;97960.60;;;22.28;53.87
61361;BME280;47232;47.506;18.936;2023-07-13T02:48:45;97978.24;;;22.24;53.91
61361;BME280;47232;47.506;18.936;2023-07-13T02:51:12;97980.53;;;22.21;54.24
61361;BME280;47232;47.506;18.936;2023-07-13T02:53:38;97977.64;;;22.15;54.36
61361;BME280;47232;47.506;18.936;2023-07-13T02:56:04;97982.40;;;22.10;54.69
61361;BME280;47232;47.506;18.936;2023-07-13T02:58:36;97984.60;;;22.07;54.86
61361;BME280;47232;47.506;18.936;2023-07-13T03:01:07;97989.63;;;22.03;55.07
61361;BME280;47232;47.506;18.936;2023-07-13T03:03:37;97998.17;;;21.98;55.25
61361;BME280;47232;47.506;18.936;2023-07-13T03:06:04;98005.15;;;21.93;55.31
61361;BME280;47232;47.506;18.936;2023-07-13T03:08:31;98012.83;;;21.90;55.79
61361;BME280;47232;47.506;18.936;2023-07-13T03:11:17;98021.68;;;21.87;56.06
61361;BME280;47232;47.506;18.936;2023-07-13T03:13:43;98023.88;;;21.85;56.27
61361;BME280;47232;47.506;18.936;2023-07-13T03:16:12;98023.02;;;21.84;56.31
61361;BME280;47232;47.506;18.936;2023-07-13T03:18:38;98017.77;;;21.82;56.26
61361;BME280;47232;47.506;18.936;2023-07-13T03:21:05;98019.95;;;21.81;56.78
61361;BME280;47232;47.506;18.936;2023-07-13T03:23:31;98008.13;;;21.80;56.97
61361;BME280;47232;47.506;18.936;2023-07-13T03:26:09;98008.67;;;21.80;56.95
61361;BME280;47232;47.506;18.936;2023-07-13T03:28:37;98011.58;;;21.80;57.06
61361;BME280;47232;47.506;18.936;2023-07-13T03:31:10;98003.14;;;21.81;57.15
61361;BME280;47232;47.506;18.936;2023-07-13T03:33:37;97999.20;;;21.84;57.55
61361;BME280;47232;47.506;18.936;2023-07-13T03:36:05;97987.23;;;21.85;57.76
61361;BME280;47232;47.506;18.936;2023-07-13T03:38:31;97994.50;;;21.88;58.02
61361;BME280;47232;47.506;18.936;2023-07-13T03:40:57;98009.06;;;21.93;58.30
61361;BME280;47232;47.506;18.936;2023-07-13T03:43:23;98015.32;;;21.99;59.03
61361;BME280;47232;47.506;18.936;2023-07-13T03:45:48;98020.80;;;22.06;59.44
61361;BME280;47232;47.506;18.936;2023-07-13T03:48:14;98018.05;;;22.13;59.55
61361;BME280;47232;47.506;18.936;2023-07-13T03:50:40;98017.59;;;22.19;59.52
61361;BME280;47232;47.506;18.936;2023-07-13T03:53:06;98016.73;;;22.25;59.60
61361;BME280;47232;47.506;18.936;2023-07-13T03:55:31;98016.70;;;22.31;59.66
61361;BME280;47232;47.506;18.936;2023-07-13T03:57:59;98014.11;;;22.37;59.85
61361;BME280;47232;47.506;18.936;2023-07-13T04:00:25;98014.64;;;22.41;60.04
61361;BME280;47232;47.506;18.936;2023-07-13T04:02:51;98014.31;;;22.45;60.25
61361;BME280;47232;47.506;18.936;2023-07-13T04:05:17;98023.63;;;22.49;60.56
61361;BME280;47232;47.506;18.936;2023-07-13T04:07:43;98042.67;;;22.53;60.99
61361;BME280;47232;47.506;18.936;2023-07-13T04:10:11;98057.57;;;22.50;61.10
61361;BME280;47232;47.506;18.936;2023-07-13T04:12:37;98074.91;;;22.46;61.10
61361;BME280;47232;47.506;18.936;2023-07-13T04:15:03;98094.19;;;22.46;61.45
61361;BME280;47232;47.506;18.936;2023-07-13T04:17:29;98112.69;;;22.45;61.53
61361;BME280;47232;47.506;18.936;2023-07-13T04:19:54;98108.84;;;22.44;61.44
61361;BME280;47232;47.506;18.936;2023-07-13T04:22:20;98102.18;;;22.42;61.39
61361;BME280;47232;47.506;18.936;2023-07-13T04:24:46;98101.09;;;22.42;61.54
61361;BME280;47232;47.506;18.936;2023-07-13T04:27:12;98106.73;;;22.43;61.38
61361;BME280;47232;47.506;18.936;2023-07-13T04:29:38;98112.77;;;22.42;61.38
61361;BME280;47232;47.506;18.936;2023-07-13T04:32:03;98111.83;;;22.40;61.38
61361;BME280;47232;47.506;18.936;2023-07-13T04:34:29;98115.45;;;22.38;61.52
61361;BME280;47232;47.506;18.936;2023-07-13T04:36:55;98122.27;;;22.35;61.74
61361;BME280;47232;47.506;18.936;2023-07-13T04:39:22;98129.63;;;22.32;62.10
61361;BME280;47232;47.506;18.936;2023-07-13T04:41:51;98133.80;;;22.28;62.11
61361;BME280;47232;47.506;18.936;2023-07-13T04:44:17;98145.55;;;22.24;62.38
61361;BME280;47232;47.506;18.936;2023-07-13T04:46:43;98154.48;;;22.19;62.84
61361;BME280;47232;47.506;18.936;2023-07-13T04:49:09;98159.79;;;22.13;63.32
61361;BME280;47232;47.506;18.936;2023-07-13T04:51:35;98168.31;;;22.12;63.99
61361;BME280;47232;47.506;18.936;2023-07-13T04:54:00;98187.83;;;22.11;64.61
61361;BME280;47232;47.506;18.936;2023-07-13T04:56:28;98201.30;;;22.09;65.18
61361;BME280;47232;47.506;18.936;2023-07-13T04:58:54;98222.92;;;22.06;66.04
61361;BME280;47232;47.506;18.936;2023-07-13T05:01:23;98249.77;;;22.01;66.85
61361;BME280;47232;47.506;18.936;2023-07-13T05:03:54;98280.06;;;21.94;67.49
61361;BME280;47232;47.506;18.936;2023-07-13T05:06:23;98303.75;;;21.81;68.39
61361;BME280;47232;47.506;18.936;2023-07-13T05:08:51;98321.42;;;21.74;69.07
61361;BME280;47232;47.506;18.936;2023-07-13T05:11:18;98339.80;;;21.68;69.43
61361;BME280;47232;47.506;18.936;2023-07-13T05:13:46;98352.48;;;21.56;70.56
61361;BME280;47232;47.506;18.936;2023-07-13T05:16:12;98361.05;;;21.45;71.41
61361;BME280;47232;47.506;18.936;2023-07-13T05:18:42;98362.33;;;21.31;72.51
61361;BME280;47232;47.506;18.936;2023-07-13T05:21:12;98355.11;;;21.19;73.30
61361;BME280;47232;47.506;18.936;2023-07-13T05:23:38;98343.39;;;21.10;74.45
61361;BME280;47232;47.506;18.936;2023-07-13T05:26:06;98337.73;;;20.96;75.32
61361;BME280;47232;47.506;18.936;2023-07-13T05:28:32;98336.77;;;20.83;75.69
61361;BME280;47232;47.506;18.936;2023-07-13T05:31:08;98343.66;;;20.75;76.35
61361;BME280;47232;47.506;18.936;2023-07-13T05:33:34;98351.12;;;20.62;77.42
61361;BME280;47232;47.506;18.936;2023-07-13T05:36:05;98354.04;;;20.50;78.34
61361;BME280;47232;47.506;18.936;2023-07-13T05:38:52;98346.17;;;20.32;79.08
61361;BME280;47232;47.506;18.936;2023-07-13T05:41:48;98337.48;;;20.22;79.76
61361;BME280;47232;47.506;18.936;2023-07-13T05:44:22;98325.89;;;20.13;79.83
61361;BME280;47232;47.506;18.936;2023-07-13T05:47:15;98317.34;;;20.11;80.19
61361;BME280;47232;47.506;18.936;2023-07-13T05:50:20;98302.08;;;20.07;80.45
61361;BME280;47232;47.506;18.936;2023-07-13T05:53:33;98290.79;;;20.09;80.21
61361;BME280;47232;47.506;18.936;2023-07-13T05:56:40;98287.39;;;20.13;80.02
61361;BME280;47232;47.506;18.936;2023-07-13T05:59:46;98296.46;;;20.08;80.02
61361;BME280;47232;47.506;18.936;2023-07-13T07:50:15;98182.28;;;22.66;73.89
61361;BME280;47232;47.506;18.936;2023-07-13T08:25:23;98182.67;;;24.30;67.33
61361;BME280;47232;47.506;18.936;2023-07-13T08:28:00;98176.52;;;24.34;67.16
61361;BME280;47232;47.506;18.936;2023-07-13T08:30:47;98174.91;;;24.41;66.69
61361;BME280;47232;47.506;18.936;2023-07-13T08:33:58;98173.09;;;24.50;66.89
61361;BME280;47232;47.506;18.936;2023-07-13T08:37:02;98168.83;;;24.61;66.46
61361;BME280;47232;47.506;18.936;2023-07-13T08:40:28;98172.40;;;24.74;66.08
61361;BME280;47232;47.506;18.936;2023-07-13T08:43:19;98174.82;;;24.84;65.72
61361;BME280;47232;47.506;18.936;2023-07-13T08:49:15;98184.43;;;25.05;64.79
61361;BME280;47232;47.506;18.936;2023-07-13T08:52:05;98181.86;;;25.12;63.99
61361;BME280;47232;47.506;18.936;2023-07-13T08:55:21;98188.33;;;25.17;63.72
61361;BME280;47232;47.506;18.936;2023-07-13T08:58:57;98189.77;;;25.29;63.16
61361;BME280;47232;47.506;18.936;2023-07-13T10:07:30;98203.13;;;27.27;53.85
61361;BME280;47232;47.506;18.936;2023-07-13T11:11:34;98205.54;;;29.99;45.08
61361;BME280;47232;47.506;18.936;2023-07-13T11:43:42;98201.48;;;31.19;42.59
61361;BME280;47232;47.506;18.936;2023-07-13T15:39:31;98188.83;;;29.88;42.04
61361;BME280;47232;47.506;18.936;2023-07-13T15:45:31;98181.17;;;29.79;41.89
61361;BME280;47232;47.506;18.936;2023-07-13T16:14:19;98232.38;;;29.20;42.90
61361;BME280;47232;47.506;18.936;2023-07-13T16:26:48;98226.77;;;28.67;44.62
61361;BME280;47232;47.506;18.936;2023-07-13T16:33:44;98216.20;;;28.56;45.42
61361;BME280;47232;47.506;18.936;2023-07-13T16:58:23;98183.11;;;28.43;46.19
61361;BME280;47232;47.506;18.936;2023-07-13T17:01:49;98185.52;;;28.34;46.07
61361;BME280;47232;47.506;18.936;2023-07-13T17:05:21;98185.66;;;28.26;46.43
61361;BME280;47232;47.506;18.936;2023-07-13T17:08:52;98184.89;;;28.21;46.78
61361;BME280;47232;47.506;18.936;2023-07-13T17:15:57;98179.73;;;28.13;49.35
61361;BME280;47232;47.506;18.936;2023-07-13T17:20:05;98186.66;;;28.04;50.41
61361;BME280;47232;47.506;18.936;2023-07-13T17:26:37;98189.89;;;27.79;51.10
61361;BME280;47232;47.506;18.936;2023-07-13T17:30:28;98191.23;;;27.67;51.26
61361;BME280;47232;47.506;18.936;2023-07-13T17:39:56;98203.89;;;27.44;51.04
61361;BME280;47232;47.506;18.936;2023-07-13T17:43:25;98205.64;;;27.39;51.90
61361;BME280;47232;47.506;18.936;2023-07-13T17:53:15;98206.62;;;27.22;52.45
61361;BME280;47232;47.506;18.936;2023-07-13T17:56:32;98207.44;;;27.16;53.01
61361;BME280;47232;47.506;18.936;2023-07-13T17:59:39;98203.66;;;27.11;53.22
61361;BME280;47232;47.506;18.936;2023-07-13T18:03:00;98207.38;;;27.05;53.26
61361;BME280;47232;47.506;18.936;2023-07-13T18:06:08;98207.81;;;26.99;53.53
61361;BME280;47232;47.506;18.936;2023-07-13T18:09:35;98217.41;;;26.92;53.75
61361;BME280;47232;47.506;18.936;2023-07-13T18:12:47;98218.77;;;26.83;54.05
61361;BME280;47232;47.506;18.936;2023-07-13T18:15:53;98215.08;;;26.77;54.44
61361;BME280;47232;47.506;18.936;2023-07-13T18:19:00;98212.20;;;26.70;54.37
61361;BME280;47232;47.506;18.936;2023-07-13T18:22:17;98216.32;;;26.64;54.57
61361;BME280;47232;47.506;18.936;2023-07-13T18:28:55;98219.91;;;26.54;54.82
61361;BME280;47232;47.506;18.936;2023-07-13T18:32:15;98223.02;;;26.46;54.72
61361;BME280;47232;47.506;18.936;2023-07-13T18:35:17;98219.89;;;26.38;54.77
61361;BME280;47232;47.506;18.936;2023-07-13T18:38:25;98229.36;;;26.28;54.94
61361;BME280;47232;47.506;18.936;2023-07-13T18:41:24;98236.29;;;26.18;55.60
61361;BME280;47232;47.506;18.936;2023-07-13T18:44:43;98240.24;;;26.06;56.15
61361;BME280;47232;47.506;18.936;2023-07-13T18:47:41;98242.90;;;25.97;56.44
61361;BME280;47232;47.506;18.936;2023-07-13T18:54:42;98243.45;;;25.79;56.78
61361;BME280;47232;47.506;18.936;2023-07-13T18:58:02;98249.45;;;25.70;56.57
61361;BME280;47232;47.506;18.936;2023-07-13T19:01:38;98253.81;;;25.62;56.61
61361;BME280;47232;47.506;18.936;2023-07-13T19:04:47;98255.75;;;25.57;56.90
61361;BME280;47232;47.506;18.936;2023-07-13T19:08:01;98256.91;;;25.52;57.37
61361;BME280;47232;47.506;18.936;2023-07-13T19:11:20;98267.54;;;25.46;57.53
61361;BME280;47232;47.506;18.936;2023-07-13T19:14:58;98268.89;;;25.38;57.78
61361;BME280;47232;47.506;18.936;2023-07-13T19:18:40;98281.33;;;25.30;58.22
61361;BME280;47232;47.506;18.936;2023-07-13T19:22:12;98285.67;;;25.23;58.39
61361;BME280;47232;47.506;18.936;2023-07-13T19:25:20;98289.84;;;25.14;58.27
61361;BME280;47232;47.506;18.936;2023-07-13T19:28:42;98299.73;;;25.07;58.66
61361;BME280;47232;47.506;18.936;2023-07-13T19:32:19;98307.82;;;25.00;58.70
61361;BME280;47232;47.506;18.936;2023-07-13T19:35:47;98319.67;;;24.94;59.29
61361;BME280;47232;47.506;18.936;2023-07-13T19:39:27;98326.84;;;24.84;59.88
61361;BME280;47232;47.506;18.936;2023-07-13T19:42:31;98332.45;;;24.80;60.06
61361;BME280;47232;47.506;18.936;2023-07-13T19:46:24;98333.34;;;24.78;60.32
61361;BME280;47232;47.506;18.936;2023-07-13T19:58:55;98360.85;;;24.58;61.26
61361;BME280;47232;47.506;18.936;2023-07-13T20:33:21;98386.89;;;24.16;60.47
61361;BME280;47232;47.506;18.936;2023-07-13T20:46:56;98365.29;;;23.99;58.77
61361;BME280;47232;47.506;18.936;2023-07-13T23:06:52;98381.08;;;22.40;61.21
